Time;durP1;ratioP1;P1;durP2;ratioP2;P2;SDS_P1;SDS_P2;PMS_P1;PMS_P2;Temp;Humidity;BMP_temperature;BMP_pressure;BME280_temperature;BME280_humidity;BME280_pressure;Samples;Min_cycle;Max_cycle;Signal;HPM_P1;HPM_P2
2023/04/07 00:01:45;;;;;;;20.60;13.77;;;7.50;99.90;;;;;;5061643;28;20336;-80
2023/04/07 00:04:10;;;;;;;20.25;12.85;;;7.50;99.90;;;;;;5030870;28;20580;-79
2023/04/07 00:06:36;;;;;;;18.80;12.77;;;7.50;99.90;;;;;;5047267;28;20036;-79
2023/04/07 00:09:02;;;;;;;18.95;12.95;;;7.50;99.90;;;;;;5048149;28;20041;-79
2023/04/07 00:11:28;;;;;;;19.75;12.80;;;7.50;99.90;;;;;;5062479;28;20063;-79
2023/04/07 00:13:53;;;;;;;19.60;13.63;;;7.50;99.90;;;;;;5030299;28;20043;-79
2023/04/07 00:16:19;;;;;;;20.75;13.48;;;7.50;99.90;;;;;;5044751;28;20116;-80
2023/04/07 00:18:45;;;;;;;19.15;12.73;;;7.50;99.90;;;;;;5034110;28;20402;-79
2023/04/07 00:21:10;;;;;;;19.23;12.93;;;7.50;99.90;;;;;;5027922;28;20076;-79
2023/04/07 00:23:36;;;;;;;20.05;12.93;;;7.50;99.90;;;;;;5065464;28;20079;-80
2023/04/07 00:26:02;;;;;;;20.42;13.55;;;7.50;99.90;;;;;;5048563;28;20490;-79
2023/04/07 00:28:27;;;;;;;21.42;14.07;;;7.50;99.90;;;;;;5068460;28;20095;-80
2023/04/07 00:30:53;;;;;;;20.30;13.70;;;7.50;99.90;;;;;;5031819;28;20327;-80
2023/04/07 00:33:19;;;;;;;19.92;13.38;;;7.50;99.90;;;;;;5055413;28;20413;-79
2023/04/07 00:35:45;;;;;;;21.40;14.13;;;7.50;99.90;;;;;;5048555;28;20554;-79
2023/04/07 00:38:10;;;;;;;21.17;13.75;;;7.50;99.90;;;;;;5044592;28;20122;-80
2023/04/07 00:40:36;;;;;;;20.17;13.85;;;7.50;99.90;;;;;;5070298;28;20043;-80
2023/04/07 00:43:02;;;;;;;21.10;14.52;;;7.50;99.90;;;;;;5055211;28;20043;-80
2023/04/07 00:45:27;;;;;;;21.17;13.93;;;7.50;99.90;;;;;;5047882;28;20097;-80
2023/04/07 00:47:55;;;;;;;18.90;13.60;;;7.50;99.90;;;;;;5024222;28;20044;-80
2023/04/07 00:50:21;;;;;;;21.38;14.10;;;7.50;99.90;;;;;;5077178;28;20032;-80
2023/04/07 00:52:46;;;;;;;21.92;13.90;;;7.50;99.90;;;;;;5059416;28;20043;-81
2023/04/07 00:55:12;;;;;;;20.83;13.52;;;7.80;99.90;;;;;;5069543;28;20040;-80
2023/04/07 00:57:38;;;;;;;21.20;14.70;;;7.70;99.90;;;;;;5073374;28;20036;-80
2023/04/07 01:00:05;;;;;;;19.38;13.50;;;7.50;99.90;;;;;;5087301;28;20039;-80
2023/04/07 01:02:35;;;;;;;20.95;14.07;;;7.50;99.90;;;;;;5057667;28;20294;-80
2023/04/07 01:05:37;;;;;;;21.13;14.02;;;7.50;99.90;;;;;;5071540;28;20040;-80
2023/04/07 01:08:20;;;;;;;24.25;14.55;;;7.50;99.90;;;;;;5069137;28;20244;-79
2023/04/07 01:10:50;;;;;;;21.17;14.93;;;7.50;99.90;;;;;;5073336;28;20122;-80
2023/04/07 01:13:29;;;;;;;21.08;14.45;;;7.50;99.90;;;;;;5084582;28;20082;-80
2023/04/07 01:15:59;;;;;;;21.08;14.55;;;7.50;99.90;;;;;;5055486;28;20091;-80
2023/04/07 01:18:30;;;;;;;21.80;14.85;;;7.50;99.90;;;;;;5070672;28;20469;-80
2023/04/07 01:21:02;;;;;;;23.10;14.82;;;7.50;99.90;;;;;;5057546;28;20420;-80
2023/04/07 01:23:55;;;;;;;22.95;14.82;;;7.50;99.90;;;;;;5078297;28;20044;-81
2023/04/07 01:26:25;;;;;;;24.38;16.08;;;7.50;99.90;;;;;;5067465;28;20051;-80
2023/04/07 01:29:25;;;;;;;21.48;14.43;;;7.70;99.90;;;;;;5074625;28;20075;-79
2023/04/07 01:31:54;;;;;;;22.17;15.07;;;7.40;99.90;;;;;;5096879;28;20040;-79
2023/04/07 01:34:22;;;;;;;23.15;15.20;;;7.40;99.90;;;;;;5085720;28;20044;-78
2023/04/07 01:36:50;;;;;;;22.33;14.80;;;7.50;99.90;;;;;;5054600;28;20115;-79
2023/04/07 01:39:17;;;;;;;22.40;15.07;;;7.40;99.90;;;;;;5059308;28;21302;-79
2023/04/07 01:41:43;;;;;;;20.48;14.65;;;7.40;99.90;;;;;;5056195;28;20032;-80
2023/04/07 01:44:10;;;;;;;22.17;14.63;;;7.40;99.90;;;;;;5070753;28;20044;-80
2023/04/07 01:46:36;;;;;;;20.45;14.27;;;7.40;99.90;;;;;;5055063;28;20036;-79
2023/04/07 01:49:02;;;;;;;24.05;16.10;;;7.50;99.90;;;;;;5056798;28;20055;-80
2023/04/07 01:51:31;;;;;;;22.00;15.32;;;7.40;99.90;;;;;;5069056;28;20032;-79
2023/04/07 01:53:58;;;;;;;21.55;14.50;;;7.90;99.90;;;;;;5060091;28;20036;-79
2023/04/07 01:56:24;;;;;;;21.10;14.63;;;7.50;99.90;;;;;;5042531;28;20091;-80
2023/04/07 01:58:50;;;;;;;23.10;15.40;;;7.50;99.90;;;;;;5043946;28;20481;-80
2023/04/07 02:01:15;;;;;;;21.98;15.57;;;7.40;99.90;;;;;;5055159;28;20036;-80
2023/04/07 02:04:07;;;;;;;21.80;14.82;;;7.40;99.90;;;;;;5042052;28;20036;-79
2023/04/07 02:06:43;;;;;;;22.10;15.25;;;7.40;99.90;;;;;;5056508;28;20113;-79
2023/04/07 02:09:11;;;;;;;21.77;14.52;;;7.40;99.90;;;;;;5074947;28;20119;-80
2023/04/07 02:11:40;;;;;;;21.92;14.95;;;7.40;99.90;;;;;;5076801;28;20508;-80
2023/04/07 02:14:08;;;;;;;20.38;14.95;;;7.40;99.90;;;;;;5076869;28;20052;-80
2023/04/07 02:16:34;;;;;;;24.25;15.68;;;7.40;99.90;;;;;;5059029;28;20040;-80
2023/04/07 02:19:02;;;;;;;22.60;14.80;;;7.40;99.90;;;;;;5056422;28;21052;-80
2023/04/07 02:21:29;;;;;;;22.30;14.68;;;7.40;99.90;;;;;;5081113;28;20795;-80
2023/04/07 02:23:55;;;;;;;24.92;16.40;;;7.40;99.90;;;;;;5080574;28;20123;-80
2023/04/07 02:26:21;;;;;;;22.83;15.65;;;7.40;99.90;;;;;;5057249;28;20043;-80
2023/04/07 02:28:46;;;;;;;23.73;15.65;;;7.40;99.90;;;;;;5077167;28;20040;-80
2023/04/07 02:31:12;;;;;;;22.88;16.05;;;7.40;99.90;;;;;;5063074;28;20470;-80
2023/04/07 02:33:38;;;;;;;23.00;15.82;;;7.40;99.90;;;;;;5076534;28;20078;-80
2023/04/07 02:36:04;;;;;;;22.20;15.07;;;7.40;99.90;;;;;;5060209;28;20977;-80
2023/04/07 02:38:31;;;;;;;21.17;14.40;;;7.40;99.90;;;;;;5054936;28;20047;-80
2023/04/07 02:40:57;;;;;;;25.90;16.73;;;7.40;99.90;;;;;;5080486;28;20039;-80
2023/04/07 02:43:24;;;;;;;22.13;15.38;;;7.40;99.90;;;;;;5058905;28;20055;-80
2023/04/07 02:45:50;;;;;;;22.85;15.40;;;7.40;99.90;;;;;;5078483;28;20036;-80
2023/04/07 02:48:16;;;;;;;21.73;15.05;;;7.40;99.90;;;;;;5065499;28;20374;-80
2023/04/07 02:50:41;;;;;;;23.10;15.85;;;7.40;99.90;;;;;;5058105;28;20040;-80
2023/04/07 02:53:07;;;;;;;23.13;15.57;;;7.30;99.90;;;;;;5067316;28;20081;-80
2023/04/07 02:55:33;;;;;;;22.85;14.95;;;7.40;99.90;;;;;;5075117;28;20040;-80
2023/04/07 02:57:59;;;;;;;22.23;14.93;;;7.40;99.90;;;;;;5061244;28;20036;-80
2023/04/07 03:00:25;;;;;;;21.38;14.65;;;7.40;99.90;;;;;;5056083;28;20036;-79
2023/04/07 03:02:50;;;;;;;21.65;15.20;;;7.40;99.90;;;;;;5054632;28;20080;-80
2023/04/07 03:05:16;;;;;;;20.48;14.60;;;7.30;99.90;;;;;;5057781;28;20040;-79
2023/04/07 03:07:42;;;;;;;24.52;16.23;;;7.30;99.90;;;;;;5045812;28;20068;-80
2023/04/07 03:10:08;;;;;;;21.67;15.27;;;7.40;99.90;;;;;;5056415;28;20042;-80
2023/04/07 03:12:34;;;;;;;20.83;14.82;;;7.30;99.90;;;;;;5037723;28;20043;-80
2023/04/07 03:14:59;;;;;;;21.98;15.18;;;7.30;99.90;;;;;;5064461;28;20036;-79
2023/04/07 03:17:25;;;;;;;23.80;15.65;;;7.30;99.90;;;;;;5081245;28;20059;-79
2023/04/07 03:19:51;;;;;;;21.80;15.30;;;7.30;99.90;;;;;;5039431;28;20402;-80
2023/04/07 03:22:17;;;;;;;20.55;14.20;;;7.30;99.90;;;;;;5063180;28;20066;-80
2023/04/07 03:24:42;;;;;;;20.08;13.73;;;7.30;99.90;;;;;;5038107;28;20055;-80
2023/04/07 03:27:08;;;;;;;21.92;14.70;;;8.30;99.90;;;;;;5065685;28;20044;-79
2023/04/07 03:29:34;;;;;;;21.38;15.20;;;7.30;99.90;;;;;;5058210;28;20051;-79
2023/04/07 03:31:59;;;;;;;21.92;14.93;;;7.30;99.90;;;;;;5057020;28;20313;-81
2023/04/07 03:34:25;;;;;;;23.40;15.70;;;7.30;99.90;;;;;;5059010;28;20116;-79
2023/04/07 03:36:51;;;;;;;21.65;14.90;;;7.40;99.90;;;;;;5059331;28;20097;-80
2023/04/07 03:39:17;;;;;;;22.27;15.25;;;7.30;99.90;;;;;;5072775;28;20040;-79
2023/04/07 03:41:42;;;;;;;23.17;15.00;;;7.30;99.90;;;;;;5053920;28;20094;-80
2023/04/07 03:44:08;;;;;;;22.63;16.02;;;8.40;99.90;;;;;;5058073;28;20054;-80
2023/04/07 03:46:34;;;;;;;21.90;15.50;;;7.30;99.90;;;;;;5053603;28;20051;-80
2023/04/07 03:49:00;;;;;;;25.13;16.00;;;7.50;99.90;;;;;;5061323;28;20128;-80
2023/04/07 03:51:26;;;;;;;21.77;15.10;;;7.30;99.90;;;;;;5055364;28;20492;-80
2023/04/07 03:53:52;;;;;;;23.23;15.88;;;7.30;99.90;;;;;;5060126;28;20035;-80
2023/04/07 03:56:18;;;;;;;21.23;14.23;;;7.30;99.90;;;;;;5062044;28;20119;-80
2023/04/07 03:58:45;;;;;;;21.50;15.02;;;7.30;99.90;;;;;;5059420;28;20067;-79
2023/04/07 04:01:11;;;;;;;22.35;15.65;;;7.30;99.90;;;;;;5054189;28;20051;-80
2023/04/07 04:03:36;;;;;;;21.88;14.40;;;7.30;99.90;;;;;;5060174;28;20036;-80
2023/04/07 04:06:03;;;;;;;21.20;14.15;;;7.20;99.90;;;;;;5062473;28;20489;-80
2023/04/07 04:08:29;;;;;;;21.83;15.15;;;7.20;99.90;;;;;;5041095;28;20150;-80
2023/04/07 04:10:55;;;;;;;24.75;16.25;;;7.20;99.90;;;;;;5065332;28;20164;-80
2023/04/07 04:13:21;;;;;;;23.92;15.20;;;7.30;99.90;;;;;;5073275;28;20080;-80
2023/04/07 04:15:46;;;;;;;22.85;15.10;;;7.20;99.90;;;;;;5082300;28;20079;-80
2023/04/07 04:18:12;;;;;;;22.13;14.73;;;7.20;99.90;;;;;;5067173;28;20048;-80
2023/04/07 04:20:38;;;;;;;20.10;13.68;;;7.40;99.90;;;;;;5055597;28;20051;-80
2023/04/07 04:23:04;;;;;;;21.67;14.30;;;7.20;99.90;;;;;;5074575;28;20037;-80
2023/04/07 04:25:29;;;;;;;21.50;14.40;;;7.20;99.90;;;;;;5068209;28;20089;-79
2023/04/07 04:27:55;;;;;;;19.33;13.63;;;7.20;99.90;;;;;;5040968;28;20027;-79
2023/04/07 04:30:21;;;;;;;21.35;14.25;;;7.20;99.90;;;;;;5085557;28;20045;-80
2023/04/07 04:32:47;;;;;;;20.58;14.18;;;7.50;99.90;;;;;;5065505;28;20058;-79
2023/04/07 04:35:12;;;;;;;21.15;13.13;;;7.20;99.90;;;;;;5080325;28;20116;-79
2023/04/07 04:37:38;;;;;;;20.58;14.10;;;7.20;99.90;;;;;;5072547;28;20036;-80
2023/04/07 04:40:07;;;;;;;20.05;13.85;;;7.20;99.90;;;;;;5060577;28;20531;-79
2023/04/07 04:42:33;;;;;;;22.02;14.35;;;7.20;99.90;;;;;;5072393;28;20043;-80
2023/04/07 04:44:59;;;;;;;21.40;14.57;;;7.20;99.90;;;;;;5052198;28;20047;-81
2023/04/07 04:47:25;;;;;;;22.33;14.60;;;7.20;99.90;;;;;;5068269;28;20113;-80
2023/04/07 04:49:50;;;;;;;21.58;13.90;;;7.20;99.90;;;;;;5075151;28;20598;-80
2023/04/07 04:52:16;;;;;;;20.85;13.88;;;7.20;99.90;;;;;;5059558;28;20040;-80
2023/04/07 04:54:42;;;;;;;22.65;14.85;;;7.20;99.90;;;;;;5031586;28;20060;-80
2023/04/07 04:57:07;;;;;;;23.70;15.95;;;7.20;99.90;;;;;;5054643;28;20062;-80
2023/04/07 04:59:33;;;;;;;21.23;14.75;;;7.20;99.90;;;;;;5060350;28;20067;-80
2023/04/07 05:01:59;;;;;;;22.52;15.23;;;7.20;99.90;;;;;;5062226;28;20036;-80
2023/04/07 05:04:25;;;;;;;21.95;14.10;;;7.20;99.90;;;;;;5052071;28;20040;-80
2023/04/07 05:06:50;;;;;;;22.52;15.52;;;7.20;99.90;;;;;;5053194;28;20063;-80
2023/04/07 05:09:16;;;;;;;21.55;14.75;;;7.20;99.90;;;;;;5055306;28;20043;-79
2023/04/07 05:11:42;;;;;;;22.05;15.05;;;7.10;99.90;;;;;;5067661;28;20173;-80
2023/04/07 05:14:08;;;;;;;21.42;14.70;;;7.10;99.90;;;;;;5041532;28;20044;-80
2023/04/07 05:16:34;;;;;;;23.42;15.55;;;7.10;99.90;;;;;;5056393;28;20042;-80
2023/04/07 05:19:00;;;;;;;22.05;15.13;;;7.10;99.90;;;;;;5072373;28;20524;-80
2023/04/07 05:21:26;;;;;;;21.55;14.88;;;7.10;99.90;;;;;;5054232;28;20040;-80
2023/04/07 05:23:52;;;;;;;23.85;15.32;;;7.10;99.90;;;;;;5067128;28;20145;-80
2023/04/07 05:26:18;;;;;;;21.83;14.40;;;7.10;99.90;;;;;;5075135;28;20056;-79
2023/04/07 05:28:44;;;;;;;22.42;15.20;;;7.10;99.90;;;;;;5030173;28;20244;-79
2023/04/07 05:31:09;;;;;;;21.98;15.00;;;7.10;99.90;;;;;;5072782;28;20119;-80
2023/04/07 05:33:35;;;;;;;23.25;14.77;;;7.10;99.90;;;;;;5067231;28;20171;-79
2023/04/07 05:36:01;;;;;;;22.20;15.20;;;7.10;99.90;;;;;;5076035;28;20032;-79
2023/04/07 05:38:27;;;;;;;23.00;15.45;;;7.10;99.90;;;;;;5066675;28;20461;-79
2023/04/07 05:40:52;;;;;;;24.40;15.23;;;7.10;99.90;;;;;;5061767;28;20504;-79
2023/04/07 05:43:18;;;;;;;23.17;15.40;;;7.10;99.90;;;;;;5049468;28;20028;-79
2023/04/07 05:45:44;;;;;;;22.88;14.32;;;7.50;99.90;;;;;;5043156;28;20797;-80
2023/04/07 05:48:10;;;;;;;20.92;14.52;;;7.20;99.90;;;;;;5083869;28;20067;-79
2023/04/07 05:50:36;;;;;;;22.15;14.73;;;7.20;99.90;;;;;;5034548;28;20028;-80
2023/04/07 05:53:01;;;;;;;20.75;14.15;;;7.10;99.90;;;;;;5043099;28;20451;-80
2023/04/07 05:55:27;;;;;;;22.08;15.02;;;7.20;99.90;;;;;;5044963;28;20541;-80
2023/04/07 05:57:53;;;;;;;22.58;15.27;;;7.20;99.90;;;;;;5040610;28;20064;-80
2023/04/07 06:00:19;;;;;;;21.50;14.32;;;7.20;99.90;;;;;;5073252;28;20056;-79
2023/04/07 06:02:45;;;;;;;22.30;15.23;;;7.20;99.90;;;;;;5074703;28;20043;-79
2023/04/07 06:05:11;;;;;;;21.40;14.25;;;7.20;99.90;;;;;;5059683;28;20444;-79
2023/04/07 06:07:36;;;;;;;23.60;15.88;;;7.20;99.90;;;;;;5047247;28;20039;-80
2023/04/07 06:10:03;;;;;;;22.17;15.93;;;7.20;99.90;;;;;;5055345;28;20132;-80
2023/04/07 06:12:28;;;;;;;20.77;14.35;;;7.30;99.90;;;;;;5050730;28;20036;-80
2023/04/07 06:14:55;;;;;;;22.65;15.30;;;7.30;99.90;;;;;;5067721;28;20084;-80
2023/04/07 06:17:21;;;;;;;21.98;15.32;;;7.20;99.90;;;;;;5044443;28;20365;-80
2023/04/07 06:19:47;;;;;;;25.75;15.70;;;7.30;99.90;;;;;;5075547;28;20061;-80
2023/04/07 06:22:13;;;;;;;22.48;14.73;;;7.30;99.90;;;;;;5063488;28;20123;-80
2023/04/07 06:24:39;;;;;;;21.52;14.95;;;7.30;99.90;;;;;;5055200;28;20083;-80
2023/04/07 06:27:05;;;;;;;22.42;14.98;;;7.30;99.90;;;;;;5071881;28;20044;-80
2023/04/07 06:29:32;;;;;;;23.05;14.75;;;7.40;99.90;;;;;;5059367;28;20052;-80
2023/04/07 06:31:58;;;;;;;21.48;14.18;;;7.40;99.90;;;;;;5070833;28;20412;-80
2023/04/07 06:34:24;;;;;;;21.00;13.95;;;7.40;99.90;;;;;;5055479;28;20052;-80
2023/04/07 06:36:50;;;;;;;22.02;15.63;;;7.40;99.90;;;;;;5041722;28;20044;-80
2023/04/07 06:39:15;;;;;;;19.67;13.52;;;7.40;99.90;;;;;;5067571;28;20036;-80
2023/04/07 06:41:44;;;;;;;22.80;15.40;;;7.50;99.90;;;;;;5053303;28;20450;-81
2023/04/07 06:44:10;;;;;;;22.55;15.20;;;7.50;99.90;;;;;;5061794;28;20036;-81
2023/04/07 06:46:36;;;;;;;21.33;15.00;;;7.60;99.90;;;;;;5063677;28;20088;-81
2023/04/07 06:49:02;;;;;;;20.83;14.20;;;7.60;99.90;;;;;;5078954;28;20058;-80
2023/04/07 06:51:28;;;;;;;21.70;14.93;;;7.60;99.90;;;;;;5027164;28;20032;-81
2023/04/07 06:53:54;;;;;;;22.88;14.88;;;7.70;99.90;;;;;;5054671;28;20986;-81
2023/04/07 06:56:22;;;;;;;21.67;14.48;;;7.70;99.90;;;;;;5062603;28;20036;-81
2023/04/07 06:58:48;;;;;;;20.85;14.45;;;7.80;99.90;;;;;;5072039;28;20040;-81
2023/04/07 07:01:14;;;;;;;20.23;13.52;;;;;;;;;;5057870;28;20043;-81
2023/04/07 07:03:40;;;;;;;20.83;14.05;;;7.90;99.90;;;;;;5074335;28;20044;-81
2023/04/07 07:06:06;;;;;;;19.33;13.65;;;7.90;99.90;;;;;;5055182;28;20058;-81
2023/04/07 07:08:32;;;;;;;19.20;13.73;;;8.00;99.90;;;;;;5068086;28;20077;-80
2023/04/07 07:10:57;;;;;;;20.20;13.73;;;8.10;99.90;;;;;;5054002;28;20907;-81
2023/04/07 07:13:25;;;;;;;20.73;14.25;;;8.10;99.90;;;;;;5068002;28;20077;-82
2023/04/07 07:15:51;;;;;;;20.23;13.35;;;8.20;99.90;;;;;;5088719;28;20039;-82
2023/04/07 07:18:17;;;;;;;19.30;13.63;;;8.10;99.90;;;;;;5058679;28;20129;-82
2023/04/07 07:20:43;;;;;;;20.23;13.20;;;8.30;99.90;;;;;;5069598;28;20488;-81
2023/04/07 07:23:09;;;;;;;18.40;12.68;;;8.40;99.90;;;;;;5071583;28;20054;-81
2023/04/07 07:25:35;;;;;;;19.00;12.85;;;8.40;99.90;;;;;;5074451;28;20476;-81
2023/04/07 07:28:00;;;;;;;18.98;12.55;;;8.50;99.90;;;;;;5062600;28;20044;-81
2023/04/07 07:30:26;;;;;;;18.42;12.82;;;8.50;99.90;;;;;;5073139;28;20060;-80
2023/04/07 07:32:53;;;;;;;18.88;12.73;;;8.50;99.90;;;;;;5079927;28;20131;-82
2023/04/07 07:35:20;;;;;;;17.30;12.20;;;8.60;99.90;;;;;;5056510;28;20079;-81
2023/04/07 07:37:46;;;;;;;17.98;12.10;;;8.60;99.90;;;;;;5065892;28;20123;-81
2023/04/07 07:40:12;;;;;;;17.75;12.20;;;8.60;99.90;;;;;;5055508;28;20110;-81
2023/04/07 07:42:38;;;;;;;17.10;11.27;;;8.60;99.90;;;;;;5066204;28;20116;-81
2023/04/07 07:45:05;;;;;;;18.63;12.07;;;8.70;99.90;;;;;;5052492;28;20560;-81
2023/04/07 07:47:31;;;;;;;17.70;11.90;;;8.70;99.90;;;;;;5051578;28;20585;-80
2023/04/07 07:49:57;;;;;;;17.52;11.93;;;8.70;99.90;;;;;;5053610;28;20059;-81
2023/04/07 07:52:22;;;;;;;17.30;12.05;;;8.70;99.90;;;;;;5072972;28;20485;-81
2023/04/07 07:54:49;;;;;;;23.98;13.10;;;8.70;99.90;;;;;;5054428;28;20207;-82
2023/04/07 07:57:16;;;;;;;17.23;11.60;;;8.70;99.90;;;;;;5032165;28;20036;-82
2023/04/07 07:59:42;;;;;;;18.33;12.85;;;8.70;99.90;;;;;;5067547;28;20444;-81
2023/04/07 08:02:08;;;;;;;18.60;12.30;;;8.70;99.90;;;;;;5076342;28;20047;-81
2023/04/07 08:04:35;;;;;;;19.65;12.90;;;8.70;99.90;;;;;;5053769;28;20109;-82
2023/04/07 08:07:01;;;;;;;19.15;13.18;;;8.70;99.90;;;;;;5030473;28;20047;-81
2023/04/07 08:09:27;;;;;;;18.73;13.70;;;8.70;99.90;;;;;;5067163;28;20040;-80
2023/04/07 08:11:53;;;;;;;22.05;14.48;;;8.90;99.90;;;;;;5049542;28;20678;-81
2023/04/07 08:14:19;;;;;;;22.55;15.32;;;8.70;99.90;;;;;;5047338;28;20032;-81
2023/04/07 08:16:45;;;;;;;25.13;17.17;;;8.80;99.90;;;;;;5028662;28;20054;-79
2023/04/07 08:19:12;;;;;;;24.77;18.30;;;8.80;99.90;;;;;;5050901;28;20396;-80
2023/04/07 08:21:38;;;;;;;26.23;19.17;;;8.80;99.90;;;;;;5066870;28;21845;-80
2023/04/07 08:24:05;;;;;;;26.35;19.42;;;8.90;99.90;;;;;;5038288;28;20038;-80
2023/04/07 08:26:31;;;;;;;28.17;18.90;;;9.00;99.90;;;;;;5077118;28;20040;-80
2023/04/07 08:28:57;;;;;;;26.00;18.40;;;9.10;99.90;;;;;;5050090;28;20235;-80
2023/04/07 08:31:23;;;;;;;26.65;18.25;;;9.20;99.90;;;;;;5059623;28;20115;-81
2023/04/07 08:33:52;;;;;;;25.17;18.30;;;9.20;99.90;;;;;;5066754;28;20048;-81
2023/04/07 08:36:19;;;;;;;24.23;17.88;;;9.30;99.90;;;;;;5060859;28;20040;-81
2023/04/07 08:38:45;;;;;;;25.02;18.23;;;9.40;99.90;;;;;;5058641;28;20043;-81
2023/04/07 08:41:16;;;;;;;25.63;18.60;;;9.40;99.90;;;;;;5056465;28;20043;-81
2023/04/07 08:43:43;;;;;;;29.58;18.05;;;9.60;99.90;;;;;;5059658;28;20241;-81
2023/04/07 08:46:09;;;;;;;24.70;18.15;;;9.60;99.90;;;;;;5053072;28;20036;-81
2023/04/07 08:48:37;;;;;;;25.73;18.48;;;9.70;99.90;;;;;;5074915;28;20032;-81
2023/04/07 08:51:08;;;;;;;25.13;17.88;;;9.80;99.90;;;;;;5072313;28;20040;-81
2023/04/07 08:53:49;;;;;;;25.30;18.02;;;9.80;99.90;;;;;;5060400;28;20042;-81
2023/04/07 08:56:16;;;;;;;25.02;17.15;;;9.90;99.90;;;;;;5057506;28;20040;-81
2023/04/07 08:58:47;;;;;;;23.58;17.63;;;9.90;99.90;;;;;;5034704;28;20482;-81
2023/04/07 09:01:13;;;;;;;25.15;16.58;;;9.90;99.90;;;;;;5059661;28;20051;-81
2023/04/07 09:03:39;;;;;;;22.13;15.63;;;9.90;99.90;;;;;;5048583;28;20050;-80
2023/04/07 09:06:05;;;;;;;22.63;15.38;;;10.00;99.90;;;;;;5065633;28;20328;-81
2023/04/07 09:08:31;;;;;;;21.17;14.70;;;10.00;99.90;;;;;;5066657;28;20047;-80
2023/04/07 09:10:57;;;;;;;20.55;14.60;;;10.10;99.90;;;;;;5047587;28;20032;-79
2023/04/07 09:13:26;;;;;;;19.00;12.68;;;11.30;99.90;;;;;;5067027;28;20052;-81
2023/04/07 09:15:51;;;;;;;18.00;12.48;;;10.20;99.90;;;;;;5058778;28;20394;-81
2023/04/07 09:18:18;;;;;;;20.38;13.88;;;10.40;99.90;;;;;;5065290;28;20046;-81
2023/04/07 09:20:57;;;;;;;19.30;12.45;;;10.60;99.90;;;;;;5069834;28;20524;-80
2023/04/07 09:23:28;;;;;;;17.38;12.15;;;10.70;99.90;;;;;;5059236;28;20673;-81
2023/04/07 09:25:54;;;;;;;18.63;11.85;;;10.70;99.90;;;;;;5062300;28;20101;-81
2023/04/07 09:28:21;;;;;;;18.95;13.18;;;10.90;99.90;;;;;;5049346;28;20032;-81
2023/04/07 09:30:54;;;;;;;18.90;12.32;;;11.00;99.90;;;;;;5045604;28;20072;-80
2023/04/07 09:33:27;;;;;;;16.65;11.82;;;11.20;99.90;;;;;;5068110;28;20047;-80
2023/04/07 09:35:53;;;;;;;;;;;11.30;99.90;;;;;;5068115;28;20040;-80
2023/04/07 09:38:19;;;;;;;16.50;10.77;;;11.40;99.90;;;;;;5053908;28;19922;-80
2023/04/07 09:40:44;;;;;;;16.13;10.70;;;11.40;99.90;;;;;;5050527;28;20492;-80
2023/04/07 09:43:16;;;;;;;17.45;10.68;;;11.50;99.90;;;;;;5064169;28;20094;-80
2023/04/07 09:45:41;;;;;;;16.08;9.70;;;11.40;99.90;;;;;;5060206;28;20367;-80
2023/04/07 09:48:17;;;;;;;14.40;9.32;;;11.50;99.90;;;;;;5038985;28;20058;-80
2023/04/07 09:50:48;;;;;;;15.68;9.00;;;11.40;99.90;;;;;;5069464;28;20127;-80
2023/04/07 09:53:18;;;;;;;14.43;9.15;;;11.40;99.90;;;;;;5035803;28;20137;-80
2023/04/07 09:55:45;;;;;;;14.55;9.82;;;11.50;99.90;;;;;;5062234;28;20514;-81
2023/04/07 09:58:15;;;;;;;15.45;10.48;;;11.40;99.90;;;;;;5063945;28;20060;-80
2023/04/07 10:00:41;;;;;;;16.35;10.75;;;11.40;99.90;;;;;;5066249;28;20410;-80
2023/04/07 10:03:07;;;;;;;14.65;9.70;;;11.40;99.90;;;;;;5053161;28;20040;-80
2023/04/07 10:05:35;;;;;;;15.02;10.25;;;11.30;99.90;;;;;;5066870;28;20529;-80
2023/04/07 10:08:01;;;;;;;16.15;10.52;;;11.30;99.90;;;;;;5064472;28;20155;-80
2023/04/07 10:10:28;;;;;;;15.63;9.95;;;11.40;99.90;;;;;;5065271;28;20485;-80
2023/04/07 10:12:56;;;;;;;15.23;10.65;;;11.50;99.90;;;;;;5054293;28;20388;-80
2023/04/07 10:15:22;;;;;;;14.73;10.10;;;11.60;99.90;;;;;;5092585;28;20032;-81
2023/04/07 10:17:48;;;;;;;15.35;10.25;;;11.60;99.90;;;;;;5072087;28;20024;-80
2023/04/07 10:20:17;;;;;;;15.25;10.35;;;11.80;99.90;;;;;;5097616;28;20063;-79
2023/04/07 10:22:44;;;;;;;15.88;10.07;;;11.80;99.90;;;;;;5088168;28;20032;-79
2023/04/07 10:25:15;;;;;;;15.43;10.02;;;11.90;99.90;;;;;;5074311;28;20044;-80
2023/04/07 10:27:49;;;;;;;14.02;9.52;;;11.80;99.90;;;;;;5086149;28;20127;-80
2023/04/07 10:30:21;;;;;;;14.73;9.65;;;11.90;99.90;;;;;;5068495;28;20053;-80
2023/04/07 10:32:51;;;;;;;15.05;9.70;;;12.00;99.90;;;;;;5060834;28;20075;-81
2023/04/07 10:35:17;;;;;;;15.18;10.07;;;12.00;99.90;;;;;;5047121;28;20036;-79
2023/04/07 10:38:12;;;;;;;14.52;9.60;;;12.00;99.90;;;;;;5042449;28;20037;-81
2023/04/07 10:40:39;;;;;;;12.75;8.70;;;12.10;99.90;;;;;;5060524;28;20032;-81
2023/04/07 10:43:10;;;;;;;13.65;9.20;;;12.20;99.90;;;;;;5042337;28;20596;-80
2023/04/07 10:45:48;;;;;;;13.88;8.93;;;12.20;99.90;;;;;;5065478;28;20120;-80
2023/04/07 10:48:17;;;;;;;14.13;8.90;;;12.20;99.90;;;;;;5059720;28;20522;-80
2023/04/07 10:51:07;;;;;;;14.32;8.90;;;12.20;99.90;;;;;;5058168;28;20754;-80
2023/04/07 10:53:33;;;;;;;13.18;8.50;;;12.20;99.90;;;;;;5046738;28;20037;-79
2023/04/07 10:56:00;;;;;;;13.55;8.88;;;12.40;99.90;;;;;;5062348;28;20040;-79
2023/04/07 10:58:27;;;;;;;14.50;8.93;;;12.40;99.90;;;;;;5062582;28;20044;-79
2023/04/07 11:00:59;;;;;;;13.98;7.82;;;12.50;99.90;;;;;;5060504;28;20106;-80
2023/04/07 11:03:27;;;;;;;12.25;7.00;;;12.50;99.90;;;;;;5047232;28;20486;-79
2023/04/07 11:06:01;;;;;;;11.40;6.70;;;12.50;99.90;;;;;;5048837;28;20170;-79
2023/04/07 11:08:37;;;;;;;11.52;5.70;;;12.60;99.90;;;;;;5060595;28;20280;-80
2023/04/07 11:11:07;;;;;;;11.55;6.38;;;12.60;99.90;;;;;;5048600;28;20394;-80
2023/04/07 11:13:47;;;;;;;10.88;6.50;;;12.60;99.90;;;;;;5062472;28;20401;-80
2023/04/07 11:16:16;;;;;;;12.00;6.80;;;12.70;99.90;;;;;;5047715;28;20041;-81
2023/04/07 11:18:42;;;;;;;11.65;6.28;;;12.70;99.90;;;;;;5066027;28;20044;-80
2023/04/07 11:21:08;;;;;;;11.25;6.78;;;12.70;99.90;;;;;;5046961;28;20226;-80
2023/04/07 11:23:41;;;;;;;11.95;6.70;;;12.60;99.90;;;;;;5052212;28;20037;-80
2023/04/07 11:26:10;;;;;;;11.60;6.90;;;12.60;99.90;;;;;;5059890;28;20045;-80
2023/04/07 11:28:47;;;;;;;14.05;7.00;;;12.60;99.90;;;;;;5050099;28;20036;-81
2023/04/07 11:31:28;;;;;;;12.55;7.15;;;12.60;99.90;;;;;;5057381;28;20490;-80
2023/04/07 11:34:04;;;;;;;11.40;7.18;;;12.60;99.90;;;;;;5058493;28;20090;-80
2023/04/07 11:36:34;;;;;;;12.57;7.53;;;12.60;99.90;;;;;;5054658;28;20072;-80
2023/04/07 11:39:01;;;;;;;11.32;7.03;;;12.60;99.90;;;;;;5041649;28;20036;-80
2023/04/07 11:41:29;;;;;;;11.88;7.28;;;12.70;99.90;;;;;;5058020;28;20045;-80
2023/04/07 11:44:09;;;;;;;11.30;6.90;;;12.80;99.90;;;;;;5056170;28;20584;-80
2023/04/07 11:46:36;;;;;;;11.75;6.97;;;13.00;99.90;;;;;;5057520;28;20085;-81
2023/04/07 11:49:10;;;;;;;12.52;6.72;;;13.20;99.90;;;;;;5071849;28;20040;-80
2023/04/07 11:51:36;;;;;;;11.55;6.80;;;13.20;99.90;;;;;;5039262;28;20036;-79
2023/04/07 11:54:01;;;;;;;12.18;7.10;;;13.20;99.90;;;;;;5071967;28;20040;-79
2023/04/07 11:56:29;;;;;;;11.80;6.82;;;13.20;99.90;;;;;;5074253;28;20517;-80
2023/04/07 11:58:55;;;;;;;11.07;6.93;;;13.20;99.90;;;;;;5064395;28;20040;-80
2023/04/07 12:01:23;;;;;;;11.32;7.07;;;13.20;99.90;;;;;;5052228;28;20449;-80
2023/04/07 12:04:00;;;;;;;13.07;7.80;;;13.20;99.90;;;;;;5082153;28;20039;-80
2023/04/07 12:06:33;;;;;;;12.00;7.35;;;13.10;99.90;;;;;;5073420;28;20486;-80
2023/04/07 12:09:05;;;;;;;13.15;7.90;;;13.20;99.90;;;;;;5072852;28;20055;-80
2023/04/07 12:11:31;;;;;;;12.07;7.22;;;13.20;99.90;;;;;;5050623;28;20126;-81
2023/04/07 12:13:57;;;;;;;11.60;7.47;;;13.20;99.90;;;;;;5050753;28;20039;-80
2023/04/07 12:16:23;;;;;;;11.50;7.38;;;13.20;99.90;;;;;;5060648;28;20032;-80
2023/04/07 12:18:53;;;;;;;12.45;7.35;;;13.30;99.90;;;;;;5073368;28;20036;-80
2023/04/07 12:21:19;;;;;;;14.70;7.50;;;13.30;99.90;;;;;;5041647;28;20152;-80
2023/04/07 12:23:46;;;;;;;12.52;7.63;;;13.40;99.90;;;;;;5080580;28;20499;-79
2023/04/07 12:26:12;;;;;;;13.27;7.60;;;13.30;99.90;;;;;;5075684;28;20401;-80
2023/04/07 12:28:38;;;;;;;12.75;7.47;;;13.30;99.90;;;;;;5057152;28;20382;-80
2023/04/07 12:31:04;;;;;;;11.23;6.95;;;13.30;99.90;;;;;;5047487;28;20047;-80
2023/04/07 12:33:30;;;;;;;14.48;7.80;;;13.30;99.90;;;;;;5062326;28;20652;-80
2023/04/07 12:35:57;;;;;;;12.40;7.80;;;13.20;99.90;;;;;;5062084;28;20127;-80
2023/04/07 12:38:23;;;;;;;12.38;7.90;;;13.20;99.90;;;;;;5064586;28;20071;-80